Terminal Aerodrome Forecast
Issued by NWS

Home | Current Version | Previous Version | Text Only | Print | Product List | Glossary On
Versions: 1 2 3 4 5 6 7 8 9 10 11 12 13 14 15 16
000
FTUS46 KMFR 021746
TAFRBG
TAF
KRBG 021746Z 0218/0318 VRB03KT P6SM BKN120
     FM022200 36010KT P6SM SCT060 BKN120
     FM030100 01008KT P6SM VCTS SCT080CB BKN200
     FM030400 VRB03KT P6SM BKN080=

USA.gov is the U.S. government's official web portal to all federal, state and local government web resources and services.